sensor_id;sensor_type;location;lat;lon;timestamp;pressure;altitude;pressure_sealevel;temperature;humidity
10652;BME280;5374;42.742;23.266;2023-03-22T00:00:56;95112.75;;;10.83;100.00
10652;BME280;5374;42.742;23.266;2023-03-22T00:03:44;95107.41;;;10.78;100.00
10652;BME280;5374;42.742;23.266;2023-03-22T00:06:31;95102.63;;;10.80;100.00
10652;BME280;5374;42.742;23.266;2023-03-22T00:09:18;95103.97;;;10.83;100.00
10652;BME280;5374;42.742;23.266;2023-03-22T00:12:06;95107.44;;;10.83;100.00
10652;BME280;5374;42.742;23.266;2023-03-22T00:14:53;95098.91;;;10.81;100.00
10652;BME280;5374;42.742;23.266;2023-03-22T00:17:41;95102.13;;;10.83;100.00
10652;BME280;5374;42.742;23.266;2023-03-22T00:20:29;95105.28;;;10.85;100.00
10652;BME280;5374;42.742;23.266;2023-03-22T00:23:19;95105.28;;;10.85;100.00
10652;BME280;5374;42.742;23.266;2023-03-22T00:26:06;95091.72;;;10.77;100.00
10652;BME280;5374;42.742;23.266;2023-03-22T00:28:53;95088.78;;;10.73;100.00
10652;BME280;5374;42.742;23.266;2023-03-22T00:31:41;95104.22;;;10.81;100.00
10652;BME280;5374;42.742;23.266;2023-03-22T00:34:31;95085.31;;;10.73;100.00
10652;BME280;5374;42.742;23.266;2023-03-22T00:37:18;95100.78;;;10.81;100.00
10652;BME280;5374;42.742;23.266;2023-03-22T00:40:07;95093.59;;;10.81;100.00
10652;BME280;5374;42.742;23.266;2023-03-22T00:42:55;95104.22;;;10.81;100.00
10652;BME280;5374;42.742;23.266;2023-03-22T00:45:42;95087.72;;;10.74;100.00
10652;BME280;5374;42.742;23.266;2023-03-22T00:48:29;95086.69;;;10.80;100.00
10652;BME280;5374;42.742;23.266;2023-03-22T00:51:18;95088.25;;;10.76;100.00
10652;BME280;5374;42.742;23.266;2023-03-22T00:54:05;95085.88;;;10.75;100.00
10652;BME280;5374;42.742;23.266;2023-03-22T00:56:52;95074.97;;;10.71;100.00
10652;BME280;5374;42.742;23.266;2023-03-22T00:59:39;95096.22;;;10.71;100.00
10652;BME280;5374;42.742;23.266;2023-03-22T01:02:27;95091.94;;;10.70;100.00
10652;BME280;5374;42.742;23.266;2023-03-22T01:05:14;95081.84;;;10.67;100.00
10652;BME280;5374;42.742;23.266;2023-03-22T01:08:04;95082.34;;;10.64;100.00
10652;BME280;5374;42.742;23.266;2023-03-22T01:10:53;95083.16;;;10.65;100.00
10652;BME280;5374;42.742;23.266;2023-03-22T01:13:40;95075.44;;;10.63;100.00
10652;BME280;5374;42.742;23.266;2023-03-22T01:16:27;95078.91;;;10.63;100.00
10652;BME280;5374;42.742;23.266;2023-03-22T01:19:14;95072.28;;;10.61;100.00
10652;BME280;5374;42.742;23.266;2023-03-22T01:22:02;95068.00;;;10.55;100.00
10652;BME280;5374;42.742;23.266;2023-03-22T01:24:51;95077.84;;;10.59;100.00
10652;BME280;5374;42.742;23.266;2023-03-22T01:27:38;95068.53;;;10.57;100.00
10652;BME280;5374;42.742;23.266;2023-03-22T01:30:25;95070.66;;;10.55;100.00
10652;BME280;5374;42.742;23.266;2023-03-22T01:33:12;95063.47;;;10.55;100.00
10652;BME280;5374;42.742;23.266;2023-03-22T01:36:00;95061.09;;;10.54;100.00
10652;BME280;5374;42.742;23.266;2023-03-22T01:38:47;95059.47;;;10.53;100.00
10652;BME280;5374;42.742;23.266;2023-03-22T01:41:36;95057.88;;;10.52;100.00
10652;BME280;5374;42.742;23.266;2023-03-22T01:44:23;95057.34;;;10.50;100.00
10652;BME280;5374;42.742;23.266;2023-03-22T01:47:10;95020.56;;;10.21;100.00
10652;BME280;5374;42.742;23.266;2023-03-22T01:49:57;95052.78;;;10.45;100.00
10652;BME280;5374;42.742;23.266;2023-03-22T01:52:45;95058.91;;;10.46;100.00
10652;BME280;5374;42.742;23.266;2023-03-22T01:55:33;95059.94;;;10.40;100.00
10652;BME280;5374;42.742;23.266;2023-03-22T01:58:22;95055.97;;;10.37;100.00
10652;BME280;5374;42.742;23.266;2023-03-22T02:01:10;95058.88;;;10.36;100.00
10652;BME280;5374;42.742;23.266;2023-03-22T02:03:58;95063.38;;;10.35;100.00
10652;BME280;5374;42.742;23.266;2023-03-22T02:06:50;95060.19;;;10.33;100.00
10652;BME280;5374;42.742;23.266;2023-03-22T02:09:38;95064.19;;;10.36;100.00
10652;BME280;5374;42.742;23.266;2023-03-22T02:12:32;95055.66;;;10.34;100.00
10652;BME280;5374;42.742;23.266;2023-03-22T02:15:26;95069.47;;;10.36;100.00
10652;BME280;5374;42.742;23.266;2023-03-22T02:18:27;95062.31;;;10.36;100.00
10652;BME280;5374;42.742;23.266;2023-03-22T02:21:56;95047.41;;;10.30;100.00
10652;BME280;5374;42.742;23.266;2023-03-22T02:28:23;95069.19;;;10.32;100.00
10652;BME280;5374;42.742;23.266;2023-03-22T02:31:27;95060.13;;;10.28;100.00
10652;BME280;5374;42.742;23.266;2023-03-22T02:34:47;95069.97;;;10.27;100.00
10652;BME280;5374;42.742;23.266;2023-03-22T02:38:20;95074.22;;;10.28;100.00
10652;BME280;5374;42.742;23.266;2023-03-22T02:41:21;95073.91;;;10.25;100.00
10652;BME280;5374;42.742;23.266;2023-03-22T02:44:18;95076.81;;;10.23;100.00
10652;BME280;5374;42.742;23.266;2023-03-22T02:47:15;95076.28;;;10.21;100.00
10652;BME280;5374;42.742;23.266;2023-03-22T02:50:10;95074.09;;;10.13;100.00
10652;BME280;5374;42.742;23.266;2023-03-22T02:53:04;95083.19;;;10.22;100.00
10652;BME280;5374;42.742;23.266;2023-03-22T02:55:56;95076.28;;;10.21;100.00
10652;BME280;5374;42.742;23.266;2023-03-22T02:58:48;95087.94;;;10.20;100.00
10652;BME280;5374;42.742;23.266;2023-03-22T03:01:41;95084.72;;;10.18;100.00
10652;BME280;5374;42.742;23.266;2023-03-22T03:04:32;95078.13;;;10.21;100.00
10652;BME280;5374;42.742;23.266;2023-03-22T03:07:24;95079.72;;;10.22;100.00
10652;BME280;5374;42.742;23.266;2023-03-22T03:10:14;95087.94;;;10.20;100.00
10652;BME280;5374;42.742;23.266;2023-03-22T03:13:02;95060.53;;;10.10;100.00
10652;BME280;5374;42.742;23.266;2023-03-22T03:15:53;95077.00;;;10.17;100.00
10652;BME280;5374;42.742;23.266;2023-03-22T03:18:46;95078.13;;;10.21;100.00
10652;BME280;5374;42.742;23.266;2023-03-22T03:21:41;95080.44;;;10.12;100.00
10652;BME280;5374;42.742;23.266;2023-03-22T03:24:35;95090.59;;;10.20;100.00
10652;BME280;5374;42.742;23.266;2023-03-22T03:27:30;95089.53;;;10.21;100.00
10652;BME280;5374;42.742;23.266;2023-03-22T03:30:23;95083.91;;;10.18;100.00
10652;BME280;5374;42.742;23.266;2023-03-22T03:33:19;95087.16;;;10.20;100.00
10652;BME280;5374;42.742;23.266;2023-03-22T03:36:11;95085.75;;;10.12;100.00
10652;BME280;5374;42.742;23.266;2023-03-22T03:39:02;95073.53;;;10.11;100.00
10652;BME280;5374;42.742;23.266;2023-03-22T03:41:54;95097.50;;;10.21;100.00
10652;BME280;5374;42.742;23.266;2023-03-22T03:44:41;95096.44;;;10.22;100.00
10652;BME280;5374;42.742;23.266;2023-03-22T03:47:29;95086.25;;;10.09;100.00
10652;BME280;5374;42.742;23.266;2023-03-22T03:50:18;95094.25;;;10.14;100.00
10652;BME280;5374;42.742;23.266;2023-03-22T03:53:05;95108.59;;;10.18;100.00
10652;BME280;5374;42.742;23.266;2023-03-22T03:55:52;95104.63;;;10.16;100.00
10652;BME280;5374;42.742;23.266;2023-03-22T03:58:39;95106.47;;;10.15;100.00
10652;BME280;5374;42.742;23.266;2023-03-22T04:01:26;95105.69;;;10.15;100.00
10652;BME280;5374;42.742;23.266;2023-03-22T04:04:13;95114.44;;;10.15;100.00
10652;BME280;5374;42.742;23.266;2023-03-22T04:07:04;95119.69;;;10.10;100.00
10652;BME280;5374;42.742;23.266;2023-03-22T04:09:51;95107.22;;;10.11;100.00
10652;BME280;5374;42.742;23.266;2023-03-22T04:12:38;95111.19;;;10.08;100.00
10652;BME280;5374;42.742;23.266;2023-03-22T04:15:26;95116.75;;;10.07;100.00
10652;BME280;5374;42.742;23.266;2023-03-22T04:18:13;95115.44;;;10.09;100.00
10652;BME280;5374;42.742;23.266;2023-03-22T04:21:00;95110.09;;;10.04;100.00
10652;BME280;5374;42.742;23.266;2023-03-22T04:23:49;95117.59;;;10.12;100.00
10652;BME280;5374;42.742;23.266;2023-03-22T04:26:36;95114.09;;;10.07;100.00
10652;BME280;5374;42.742;23.266;2023-03-22T04:29:23;95110.94;;;10.10;100.00
10652;BME280;5374;42.742;23.266;2023-03-22T04:32:11;95115.94;;;10.06;100.00
10652;BME280;5374;42.742;23.266;2023-03-22T04:34:58;95113.28;;;10.06;100.00
10652;BME280;5374;42.742;23.266;2023-03-22T04:37:45;95107.19;;;10.06;100.00
10652;BME280;5374;42.742;23.266;2023-03-22T04:40:34;95123.66;;;10.08;100.00
10652;BME280;5374;42.742;23.266;2023-03-22T04:43:23;95122.31;;;10.05;100.00
10652;BME280;5374;42.742;23.266;2023-03-22T04:46:10;95119.16;;;10.08;100.00
10652;BME280;5374;42.742;23.266;2023-03-22T04:48:58;95109.28;;;10.04;100.00
10652;BME280;5374;42.742;23.266;2023-03-22T04:51:45;95119.69;;;10.10;100.00
10652;BME280;5374;42.742;23.266;2023-03-22T04:54:32;95118.59;;;10.06;100.00
10652;BME280;5374;42.742;23.266;2023-03-22T04:57:21;95101.34;;;10.04;100.00
10652;BME280;5374;42.742;23.266;2023-03-22T05:00:09;95130.06;;;10.17;100.00
10652;BME280;5374;42.742;23.266;2023-03-22T05:02:57;95122.41;;;10.15;100.00
10652;BME280;5374;42.742;23.266;2023-03-22T05:05:49;95137.31;;;10.21;100.00
10652;BME280;5374;42.742;23.266;2023-03-22T05:08:37;95137.59;;;10.25;100.00
10652;BME280;5374;42.742;23.266;2023-03-22T05:11:24;95145.06;;;10.28;100.00
10652;BME280;5374;42.742;23.266;2023-03-22T05:14:14;95137.66;;;10.30;100.00
10652;BME280;5374;42.742;23.266;2023-03-22T05:17:01;95138.19;;;10.32;100.00
10652;BME280;5374;42.742;23.266;2023-03-22T05:19:48;95149.91;;;10.41;100.00
10652;BME280;5374;42.742;23.266;2023-03-22T05:22:36;95148.34;;;10.45;100.00
10652;BME280;5374;42.742;23.266;2023-03-22T05:25:25;95153.66;;;10.45;100.00
10652;BME280;5374;42.742;23.266;2023-03-22T05:28:12;95150.97;;;10.40;100.00
10652;BME280;5374;42.742;23.266;2023-03-22T05:31:01;95156.09;;;10.52;100.00
10652;BME280;5374;42.742;23.266;2023-03-22T05:33:48;95149.97;;;10.46;100.00
10652;BME280;5374;42.742;23.266;2023-03-22T05:36:36;95161.72;;;10.55;100.00
10652;BME280;5374;42.742;23.266;2023-03-22T05:39:23;95168.91;;;10.60;100.00
10652;BME280;5374;42.742;23.266;2023-03-22T05:42:10;95165.72;;;10.63;100.00
10652;BME280;5374;42.742;23.266;2023-03-22T05:44:57;95166.25;;;10.65;100.00
10652;BME280;5374;42.742;23.266;2023-03-22T05:47:46;95162.31;;;10.68;100.00
10652;BME280;5374;42.742;23.266;2023-03-22T05:50:34;95172.63;;;10.64;100.00
10652;BME280;5374;42.742;23.266;2023-03-22T05:53:21;95167.34;;;10.69;100.00
10652;BME280;5374;42.742;23.266;2023-03-22T05:56:08;95171.91;;;10.74;100.00
10652;BME280;5374;42.742;23.266;2023-03-22T05:58:56;95170.09;;;10.79;100.00
10652;BME280;5374;42.742;23.266;2023-03-22T06:01:44;95183.13;;;10.81;100.00
10652;BME280;5374;42.742;23.266;2023-03-22T06:04:32;95169.25;;;10.74;100.00
10652;BME280;5374;42.742;23.266;2023-03-22T06:07:20;95187.13;;;10.88;100.00
10652;BME280;5374;42.742;23.266;2023-03-22T06:10:10;95188.22;;;10.92;100.00
10652;BME280;5374;42.742;23.266;2023-03-22T06:12:57;95178.41;;;10.98;100.00
10652;BME280;5374;42.742;23.266;2023-03-22T06:15:45;95192.78;;;11.02;100.00
10652;BME280;5374;42.742;23.266;2023-03-22T06:18:32;95185.09;;;11.06;100.00
10652;BME280;5374;42.742;23.266;2023-03-22T06:21:21;95191.22;;;11.11;100.00
10652;BME280;5374;42.742;23.266;2023-03-22T06:24:09;95195.25;;;11.19;100.00
10652;BME280;5374;42.742;23.266;2023-03-22T06:26:56;95184.34;;;11.15;100.00
10652;BME280;5374;42.742;23.266;2023-03-22T06:29:43;95197.41;;;11.32;100.00
10652;BME280;5374;42.742;23.266;2023-03-22T06:32:35;95197.47;;;11.42;100.00
10652;BME280;5374;42.742;23.266;2023-03-22T06:35:22;95199.09;;;11.48;100.00
10652;BME280;5374;42.742;23.266;2023-03-22T06:38:11;95205.50;;;11.57;100.00
10652;BME280;5374;42.742;23.266;2023-03-22T06:40:59;95191.41;;;11.57;100.00
10652;BME280;5374;42.742;23.266;2023-03-22T06:43:46;95206.03;;;11.59;100.00
10652;BME280;5374;42.742;23.266;2023-03-22T06:46:33;95202.63;;;11.69;100.00
10652;BME280;5374;42.742;23.266;2023-03-22T06:49:20;95199.16;;;11.69;100.00
10652;BME280;5374;42.742;23.266;2023-03-22T06:52:07;95221.47;;;11.62;100.00
10652;BME280;5374;42.742;23.266;2023-03-22T06:54:56;95214.78;;;11.55;100.00
10652;BME280;5374;42.742;23.266;2023-03-22T06:57:43;95216.16;;;11.62;100.00
10652;BME280;5374;42.742;23.266;2023-03-22T07:00:31;95200.19;;;11.62;100.00
10652;BME280;5374;42.742;23.266;2023-03-22T07:03:19;95200.22;;;11.68;100.00
10652;BME280;5374;42.742;23.266;2023-03-22T07:06:07;95219.66;;;11.73;100.00
10652;BME280;5374;42.742;23.266;2023-03-22T07:08:54;95218.09;;;11.77;100.00
10652;BME280;5374;42.742;23.266;2023-03-22T07:11:43;95218.09;;;11.77;100.00
10652;BME280;5374;42.742;23.266;2023-03-22T07:14:30;95223.13;;;11.74;100.00
10652;BME280;5374;42.742;23.266;2023-03-22T07:17:17;95222.06;;;11.75;100.00
10652;BME280;5374;42.742;23.266;2023-03-22T07:20:05;95232.97;;;11.78;100.00
10652;BME280;5374;42.742;23.266;2023-03-22T07:22:52;95212.47;;;11.74;100.00
10652;BME280;5374;42.742;23.266;2023-03-22T07:25:41;95232.47;;;11.86;100.00
10652;BME280;5374;42.742;23.266;2023-03-22T07:28:29;95235.97;;;11.92;100.00
10652;BME280;5374;42.742;23.266;2023-03-22T07:31:17;95246.59;;;11.92;100.00
10652;BME280;5374;42.742;23.266;2023-03-22T07:34:04;95244.47;;;11.89;100.00
10652;BME280;5374;42.742;23.266;2023-03-22T07:36:51;95248.44;;;11.86;100.00
10652;BME280;5374;42.742;23.266;2023-03-22T07:39:41;95243.66;;;11.83;100.00
10652;BME280;5374;42.742;23.266;2023-03-22T07:42:28;95247.88;;;11.79;100.00
10652;BME280;5374;42.742;23.266;2023-03-22T07:45:19;95248.13;;;11.78;100.00
10652;BME280;5374;42.742;23.266;2023-03-22T07:48:09;95252.94;;;11.81;100.00
10652;BME280;5374;42.742;23.266;2023-03-22T07:50:56;95257.47;;;11.80;100.00
10652;BME280;5374;42.742;23.266;2023-03-22T07:53:44;95259.31;;;11.80;100.00
10652;BME280;5374;42.742;23.266;2023-03-22T07:56:31;95259.84;;;11.77;100.00
10652;BME280;5374;42.742;23.266;2023-03-22T07:59:18;95265.16;;;11.77;100.00
10652;BME280;5374;42.742;23.266;2023-03-22T08:02:08;95265.41;;;11.75;100.00
10652;BME280;5374;42.742;23.266;2023-03-22T08:04:55;95269.69;;;11.76;100.00
10652;BME280;5374;42.742;23.266;2023-03-22T08:07:42;95265.69;;;11.74;100.00
10652;BME280;5374;42.742;23.266;2023-03-22T08:10:30;95265.69;;;11.74;100.00
10652;BME280;5374;42.742;23.266;2023-03-22T08:13:17;95262.47;;;11.72;100.00
10652;BME280;5374;42.742;23.266;2023-03-22T08:16:05;95271.50;;;11.76;100.00
10652;BME280;5374;42.742;23.266;2023-03-22T08:18:54;95268.34;;;11.74;100.00
10652;BME280;5374;42.742;23.266;2023-03-22T08:21:41;95267.81;;;11.77;100.00
10652;BME280;5374;42.742;23.266;2023-03-22T08:24:28;95253.66;;;11.66;100.00
10652;BME280;5374;42.742;23.266;2023-03-22T08:27:15;95262.44;;;11.67;100.00
10652;BME280;5374;42.742;23.266;2023-03-22T08:30:04;95264.88;;;11.73;100.00
10652;BME280;5374;42.742;23.266;2023-03-22T08:32:51;95271.28;;;11.77;100.00
10652;BME280;5374;42.742;23.266;2023-03-22T08:35:40;95284.56;;;11.72;100.00
10652;BME280;5374;42.742;23.266;2023-03-22T08:38:27;95279.78;;;11.74;100.00
10652;BME280;5374;42.742;23.266;2023-03-22T08:41:15;95281.13;;;11.77;100.00
10652;BME280;5374;42.742;23.266;2023-03-22T08:44:02;95287.53;;;11.81;100.00
10652;BME280;5374;42.742;23.266;2023-03-22T08:46:50;95294.91;;;11.69;100.00
10652;BME280;5374;42.742;23.266;2023-03-22T08:49:37;95289.06;;;11.72;100.00
10652;BME280;5374;42.742;23.266;2023-03-22T08:52:25;95290.13;;;11.76;100.00
10652;BME280;5374;42.742;23.266;2023-03-22T08:55:12;95287.81;;;11.84;100.00
10652;BME280;5374;42.742;23.266;2023-03-22T08:58:02;95280.38;;;11.86;100.00
10652;BME280;5374;42.742;23.266;2023-03-22T09:00:49;95259.59;;;11.83;100.00
10652;BME280;5374;42.742;23.266;2023-03-22T09:03:36;95289.72;;;11.99;100.00
10652;BME280;5374;42.742;23.266;2023-03-22T09:06:23;95280.94;;;11.93;100.00
10652;BME280;5374;42.742;23.266;2023-03-22T09:09:13;95297.19;;;12.07;100.00
10652;BME280;5374;42.742;23.266;2023-03-22T09:12:00;95301.47;;;12.13;100.00
10652;BME280;5374;42.742;23.266;2023-03-22T09:14:47;95292.44;;;12.14;100.00
10652;BME280;5374;42.742;23.266;2023-03-22T09:17:34;95309.22;;;12.15;100.00
10652;BME280;5374;42.742;23.266;2023-03-22T09:20:21;95294.03;;;12.15;100.00
10652;BME280;5374;42.742;23.266;2023-03-22T09:23:10;95295.91;;;12.20;100.00
10652;BME280;5374;42.742;23.266;2023-03-22T09:26:00;95296.69;;;12.20;100.00
10652;BME280;5374;42.742;23.266;2023-03-22T09:28:48;95303.09;;;12.24;100.00
10652;BME280;5374;42.742;23.266;2023-03-22T09:31:35;95305.75;;;12.24;100.00
10652;BME280;5374;42.742;23.266;2023-03-22T09:34:22;95290.03;;;12.13;100.00
10652;BME280;5374;42.742;23.266;2023-03-22T09:37:10;95302.00;;;12.20;100.00
10652;BME280;5374;42.742;23.266;2023-03-22T09:39:59;95294.03;;;12.25;100.00
10652;BME280;5374;42.742;23.266;2023-03-22T09:42:49;95289.25;;;12.27;100.00
10652;BME280;5374;42.742;23.266;2023-03-22T09:45:40;95299.13;;;12.37;100.00
10652;BME280;5374;42.742;23.266;2023-03-22T09:48:31;95281.31;;;12.38;100.00
10652;BME280;5374;42.742;23.266;2023-03-22T09:51:37;95286.34;;;12.44;100.00
10652;BME280;5374;42.742;23.266;2023-03-22T09:54:31;95291.94;;;12.48;100.00
10652;BME280;5374;42.742;23.266;2023-03-22T09:57:24;95305.81;;;12.60;100.00
10652;BME280;5374;42.742;23.266;2023-03-22T10:00:18;95294.63;;;12.58;100.00
10652;BME280;5374;42.742;23.266;2023-03-22T10:03:17;95309.03;;;12.62;100.00
10652;BME280;5374;42.742;23.266;2023-03-22T10:06:09;95304.75;;;12.66;100.00
10652;BME280;5374;42.742;23.266;2023-03-22T10:09:05;95299.19;;;12.62;100.00
10652;BME280;5374;42.742;23.266;2023-03-22T10:11:59;95301.56;;;12.74;100.00
10652;BME280;5374;42.742;23.266;2023-03-22T10:14:53;95297.56;;;12.72;100.00
10652;BME280;5374;42.742;23.266;2023-03-22T10:17:48;95308.22;;;12.82;100.00
10652;BME280;5374;42.742;23.266;2023-03-22T10:20:40;95311.97;;;12.86;100.00
10652;BME280;5374;42.742;23.266;2023-03-22T10:23:32;95309.53;;;12.89;100.00
10652;BME280;5374;42.742;23.266;2023-03-22T10:26:27;95312.25;;;12.84;100.00
10652;BME280;5374;42.742;23.266;2023-03-22T10:29:22;95311.16;;;12.80;100.00
10652;BME280;5374;42.742;23.266;2023-03-22T10:32:14;95315.44;;;12.81;100.00
10652;BME280;5374;42.742;23.266;2023-03-22T10:35:04;95262.13;;;12.46;100.00
10652;BME280;5374;42.742;23.266;2023-03-22T10:37:57;95309.28;;;12.71;100.00
10652;BME280;5374;42.742;23.266;2023-03-22T10:40:48;95310.63;;;12.73;100.00
10652;BME280;5374;42.742;23.266;2023-03-22T10:43:37;95310.09;;;12.81;100.00
10652;BME280;5374;42.742;23.266;2023-03-22T10:46:27;95307.16;;;12.78;100.00
10652;BME280;5374;42.742;23.266;2023-03-22T10:49:25;95295.19;;;12.80;100.00
10652;BME280;5374;42.742;23.266;2023-03-22T10:52:25;95310.09;;;12.86;100.00
10652;BME280;5374;42.742;23.266;2023-03-22T10:55:19;95304.50;;;12.83;100.00
10652;BME280;5374;42.742;23.266;2023-03-22T10:58:14;95297.28;;;12.88;100.00
10652;BME280;5374;42.742;23.266;2023-03-22T11:01:04;95308.50;;;12.95;100.00
10652;BME280;5374;42.742;23.266;2023-03-22T11:04:05;95303.72;;;12.82;100.00
10652;BME280;5374;42.742;23.266;2023-03-22T11:06:54;95305.84;;;12.85;100.00
10652;BME280;5374;42.742;23.266;2023-03-22T11:09:43;95303.44;;;12.84;100.00
10652;BME280;5374;42.742;23.266;2023-03-22T11:12:30;95304.78;;;12.86;100.00
10652;BME280;5374;42.742;23.266;2023-03-22T11:15:27;95307.44;;;12.81;100.00
10652;BME280;5374;42.742;23.266;2023-03-22T11:18:16;95309.31;;;12.86;100.00
10652;BME280;5374;42.742;23.266;2023-03-22T11:21:06;95297.84;;;12.75;100.00
10652;BME280;5374;42.742;23.266;2023-03-22T11:23:58;95304.47;;;12.88;100.00
10652;BME280;5374;42.742;23.266;2023-03-22T11:27:03;95290.66;;;12.86;100.00
10652;BME280;5374;42.742;23.266;2023-03-22T11:29:52;95282.38;;;12.87;100.00
10652;BME280;5374;42.742;23.266;2023-03-22T11:32:42;95288.50;;;13.03;100.00
10652;BME280;5374;42.742;23.266;2023-03-22T11:35:30;95286.63;;;13.09;100.00
10652;BME280;5374;42.742;23.266;2023-03-22T11:38:25;95280.25;;;13.05;100.00
10652;BME280;5374;42.742;23.266;2023-03-22T11:41:20;95287.69;;;13.08;100.00
10652;BME280;5374;42.742;23.266;2023-03-22T11:44:12;95284.25;;;13.02;100.00
10652;BME280;5374;42.742;23.266;2023-03-22T11:47:01;95280.78;;;13.01;100.00
10652;BME280;5374;42.742;23.266;2023-03-22T11:49:50;95273.56;;;12.97;100.00
10652;BME280;5374;42.742;23.266;2023-03-22T11:52:39;95274.09;;;13.04;100.00
10652;BME280;5374;42.742;23.266;2023-03-22T11:55:34;95282.91;;;13.05;100.00
10652;BME280;5374;42.742;23.266;2023-03-22T11:58:25;95295.16;;;13.06;100.00
10652;BME280;5374;42.742;23.266;2023-03-22T12:01:17;95283.94;;;13.14;100.00
10652;BME280;5374;42.742;23.266;2023-03-22T12:04:12;95285.56;;;13.10;100.00
10652;BME280;5374;42.742;23.266;2023-03-22T12:07:03;95282.09;;;13.19;100.00
10652;BME280;5374;42.742;23.266;2023-03-22T12:09:57;95287.16;;;13.26;100.00
10652;BME280;5374;42.742;23.266;2023-03-22T12:12:48;95283.44;;;13.32;100.00
10652;BME280;5374;42.742;23.266;2023-03-22T12:15:39;95281.00;;;13.35;100.00
10652;BME280;5374;42.742;23.266;2023-03-22T12:18:37;95282.31;;;13.43;100.00
10652;BME280;5374;42.742;23.266;2023-03-22T12:21:28;95279.38;;;13.50;100.00
10652;BME280;5374;42.742;23.266;2023-03-22T12:24:23;95283.88;;;13.59;100.00
10652;BME280;5374;42.742;23.266;2023-03-22T12:27:15;95270.25;;;13.66;100.00
10652;BME280;5374;42.742;23.266;2023-03-22T12:30:06;95279.22;;;13.85;100.00
10652;BME280;5374;42.742;23.266;2023-03-22T12:33:01;95280.00;;;13.91;100.00
10652;BME280;5374;42.742;23.266;2023-03-22T12:35:55;95278.69;;;13.88;100.00
10652;BME280;5374;42.742;23.266;2023-03-22T12:38:45;95282.13;;;13.94;100.00
10652;BME280;5374;42.742;23.266;2023-03-22T12:41:37;95276.78;;;13.99;100.00
10652;BME280;5374;42.742;23.266;2023-03-22T12:44:28;95271.88;;;14.16;100.00
10652;BME280;5374;42.742;23.266;2023-03-22T12:47:22;95272.06;;;14.25;100.00
10652;BME280;5374;42.742;23.266;2023-03-22T12:50:13;95275.75;;;13.90;100.00
10652;BME280;5374;42.742;23.266;2023-03-22T12:53:03;95270.94;;;13.87;100.00
10652;BME280;5374;42.742;23.266;2023-03-22T12:55:51;95256.88;;;13.71;100.00
10652;BME280;5374;42.742;23.266;2023-03-22T12:58:41;95272.31;;;13.79;100.00
10652;BME280;5374;42.742;23.266;2023-03-22T13:01:33;95268.91;;;13.68;100.00
10652;BME280;5374;42.742;23.266;2023-03-22T13:04:30;95267.56;;;13.71;100.00
10652;BME280;5374;42.742;23.266;2023-03-22T13:07:48;95265.44;;;13.63;100.00
10652;BME280;5374;42.742;23.266;2023-03-22T13:10:58;95272.38;;;13.64;100.00
10652;BME280;5374;42.742;23.266;2023-03-22T13:13:46;95268.34;;;13.72;100.00
10652;BME280;5374;42.742;23.266;2023-03-22T13:16:48;95268.34;;;13.77;100.00
10652;BME280;5374;42.742;23.266;2023-03-22T13:19:36;95262.44;;;13.80;100.00
10652;BME280;5374;42.742;23.266;2023-03-22T13:22:26;95267.72;;;13.95;100.00
10652;BME280;5374;42.742;23.266;2023-03-22T13:25:27;95262.84;;;14.07;100.00
10652;BME280;5374;42.742;23.266;2023-03-22T13:28:22;95257.19;;;14.14;100.00
10652;BME280;5374;42.742;23.266;2023-03-22T13:31:28;95261.34;;;14.35;100.00
10652;BME280;5374;42.742;23.266;2023-03-22T13:34:20;95256.78;;;14.46;100.00
10652;BME280;5374;42.742;23.266;2023-03-22T13:37:08;95252.97;;;14.52;100.00
10652;BME280;5374;42.742;23.266;2023-03-22T13:39:57;95256.13;;;14.59;100.00
10652;BME280;5374;42.742;23.266;2023-03-22T13:42:46;95255.72;;;14.36;100.00
10652;BME280;5374;42.742;23.266;2023-03-22T13:45:35;95254.66;;;14.37;100.00
10652;BME280;5374;42.742;23.266;2023-03-22T13:48:28;95257.03;;;14.39;100.00
10652;BME280;5374;42.742;23.266;2023-03-22T13:51:19;95260.38;;;14.21;100.00
10652;BME280;5374;42.742;23.266;2023-03-22T13:54:09;95254.81;;;14.07;100.00
10652;BME280;5374;42.742;23.266;2023-03-22T13:57:03;95255.09;;;14.06;100.00
10652;BME280;5374;42.742;23.266;2023-03-22T14:00:03;95252.75;;;13.99;100.00
10652;BME280;5374;42.742;23.266;2023-03-22T14:02:59;95246.81;;;14.07;100.00
10652;BME280;5374;42.742;23.266;2023-03-22T14:05:56;95255.56;;;14.18;100.00
10652;BME280;5374;42.742;23.266;2023-03-22T14:08:49;95250.72;;;14.25;100.00
10652;BME280;5374;42.742;23.266;2023-03-22T14:11:44;95262.13;;;14.35;100.00
10652;BME280;5374;42.742;23.266;2023-03-22T14:14:38;95262.94;;;14.36;100.00
10652;BME280;5374;42.742;23.266;2023-03-22T14:17:31;95259.78;;;14.24;100.00
10652;BME280;5374;42.742;23.266;2023-03-22T14:20:24;95265.06;;;13.95;100.00
10652;BME280;5374;42.742;23.266;2023-03-22T14:23:15;95262.06;;;14.01;100.00
10652;BME280;5374;42.742;23.266;2023-03-22T14:26:07;95249.03;;;13.95;100.00
10652;BME280;5374;42.742;23.266;2023-03-22T14:29:07;95248.94;;;14.10;100.00
10652;BME280;5374;42.742;23.266;2023-03-22T14:31:57;95259.63;;;14.10;100.00
10652;BME280;5374;42.742;23.266;2023-03-22T14:34:47;95261.78;;;14.03;100.00
10652;BME280;5374;42.742;23.266;2023-03-22T14:37:38;95252.19;;;14.02;100.00
10652;BME280;5374;42.742;23.266;2023-03-22T14:40:29;95264.97;;;14.05;100.00
10652;BME280;5374;42.742;23.266;2023-03-22T14:43:22;95254.84;;;14.02;100.00
10652;BME280;5374;42.742;23.266;2023-03-22T14:46:14;95262.31;;;14.05;100.00
10652;BME280;5374;42.742;23.266;2023-03-22T14:49:02;95267.13;;;14.03;100.00
10652;BME280;5374;42.742;23.266;2023-03-22T14:51:50;95271.47;;;13.94;100.00
10652;BME280;5374;42.742;23.266;2023-03-22T14:54:39;95274.13;;;13.94;100.00